Gorman, Texas
Current Conditions -  °F | °C
As of 8:35 PM on Wednesday 22 Oct 2014 (Local Time) from KMKN Reporting Station
Overcast Overcast  
Wind Chill: 71°   Ceiling: 11000
Heat Index: 71°   Visibility: 10mi
Dew Point: 60°   Wind: 6mph
Humidity: 68%   Direction: 120°ESE
Pressure: 30.11"   Gusts: NA
Location:  32.21°N, 98.67°W
Report Text: KMKN 230135Z AUTO 12005KT 10SM SCT060 SCT080 OVC110 22/15 A3011 RMK AO2 T02150154
Loading
Personal Weather Stations






























Interactive Weather Map
Tropical Storm Tracking
New forecast layout! Learn more

10-Day Weather Forecast

Advertisements
Track Severe Weather on mobile